EDDNLOWS

Guest
Details From EDDN - Nurnberg
To LOWS - Salzburg Maxglan
Flight Number -
Tags generated
Created
Modified
Stats Distance 128 nm / 237 km
Max Altitude 7,200 ft / 2,195 m
Waypoints 3
Social Downloads 3
Likes 0
Share VATSIM

Download

Looking for another format? Having issues loading an existing format? Contact us
Advertisement - Login to hide

Notes

Basic altitude profile: - Ascent Rate: 2500ft/min - Ascent Speed: 250kts - Cruise Altitude: 35000ft - Cruise Speed: 420kts - Descent Rate: 1500ft/min - Descent Speed: 250kts Options: - Use NATs: yes - Use PACOTS: yes - Use low airways: yes - Use high airways: yes

Route

EDDN DOSIS LOWS

ID Type Via Altitude Latitude Longitude Leg Dist Tot Dist Heading (true) Name
O EDDN APT - 0 ft / 0 m 49.49874˚ 11.07758˚ - 0 nm - Nurnberg
DOSIS FIX - 7,200 ft / 2,195 m 49.23861˚ 11.40667˚ 20 nm 20 nm 140° / 141° -
O LOWS APT - 0 ft / 0 m 47.79333˚ 13.00433˚ 107 nm 127 nm 143° / 144° Salzburg Maxglan

Altitude Profile

Advertisement - Login to hide

EDDN

Details ICAO EDDN (NUE)
Name Nurnberg
Region Germany - Civil
Timezone Europe/Berlin (UTC+2.0)
Stats Elevation 1,045 ft / 319 m (AMSL)
Location 49.498744° 11.077580°
Runways 1
Magnetic Variation 3.075° E

METAR

EDDN 271920Z 09006KT 9999 VCSH FEW050CB SCT070 BKN260 23/14 Q1017 NOSIG

Decode

TAF

TAF EDDN 271700Z 2718/2818 VRB03KT CAVOK BECMG 2807/2809 11008KT

Decode

Departure Runways

ID Width Length Bearing (true) Bearing (mag) Surface Threshold Offset Overrun Length
10 148 ft / 45 m 8,819 ft / 2,688 m 98.60° 95.52° Asphalt 0 ft / 0 m 0 ft / 0 m
28 148 ft / 45 m 8,819 ft / 2,688 m 278.63° 275.55° Asphalt 0 ft / 0 m 0 ft / 0 m

LOWS

Details ICAO LOWS (SZG)
Name Salzburg Maxglan
Region Austria
Timezone Europe/Vienna (UTC+2.0)
Stats Elevation 1,411 ft / 430 m (AMSL)
Location 47.793333° 13.004333°
Runways 1
Magnetic Variation 3.481° E

METAR

LOWS 271920Z 15008KT 9999 FEW070 BKN250 20/13 Q1018 NOSIG

Decode

TAF

TAF LOWS 271715Z 2718/2818 15005KT 9999 FEW060 SCT090 BKN150 TX29/2813Z TN15/2803Z TEMPO 2718/2720 15013KT BECMG 2719/2721 CAVOK BECMG 2807/2809 35006KT 9999 FEW060 TEMPO 2812/2818 03008KT FEW050 FEW060CB SCT090 PROB30 TEMPO 2814/2818 -TSRA

Decode

Destination Runways

ID Width Length Bearing (true) Bearing (mag) Surface Threshold Offset Overrun Length
16 148 ft / 45 m 9,024 ft / 2,751 m 157.08° 153.60° Concrete 656 ft / 200 m 0 ft / 0 m
34 148 ft / 45 m 9,024 ft / 2,751 m 337.09° 333.61° Concrete 787 ft / 240 m 0 ft / 0 m

Approach Navaids

Runway Type Ident Frequency Range Bearing (true) Bearing (mag) Slope Elevation
16 Localiser OES 109.90 MHz 18 nm / 33 km 157.53° 154.05° - 1,411 ft / 430 m (AMSL)
16 Glidescope OES 109.90 MHz 10 nm / 19 km 157.09° 153.60° 3.00° 1,446 ft / 441 m (AMSL)
16 DME OES 109.90 MHz 18 nm / 33 km - - - 1,446 ft / 441 m (AMSL)

Popular Alternatives